Hauptseite
METAR-TAF:

METAR-TAF

Flughäfen :

Flughafen Kadala

Tschita, Russland

Breite: 52-05N, Länge: 113-29E, Höhe: 685 m

Beobachtung

Neuester Wetterbericht von vor 19 Minuten, um 18:30 UTC
Wind 2 kt aus Süd
Temperatur -8°C
Luftfeuchtigkeit 67%
Luftdruck 1014 hPa
Sichtweite 10 km oder mehr

METAR: UIAA 161830Z AUTO 17001MPS 9999 NCD M08/M13 Q1014 RMK QFE702/0937

Zeit: 03:49 (18:49 UTC)

Prognose

Neuester Wetterbericht von vor 1 Stunde und 49 Minuten, um 17:00 UTC
Gültige Prognose vom 16 um 18 UTC bis 17 um 18 UTC
Wind 6 kt aus West, Böen bis zu 16 kt
Sichtweite 10 km oder mehr
Durchbrochene Bewölkung in der Höhe von 3000 ft, Kumulonimbus.
Zeitweise
vom 17 um 06 UTC bis 17 um 12 UTC
Wind 12 kt aus Nordwest, Böen bis zu 25 kt

TAF: UIAA 161700Z 1618/1718 26003G08MPS 9999 BKN030CB TEMPO 1706/1712 32006G13MPS

Wetterbeobachtungen und Prognosen von mehr als 4000 Flughäfen (METAR und TAF Bericht).

Die verfügbaren Stationen werden durch gelbe und rote Markierungen auf der Karte dargestellt.

Führen Sie die Maus auf sie, um den Namen der Station zu sehen.

Darauf klicken, um die Beobachtung von Wetterbeobachtungen und Prognosen zu sehen.

Um die Karte zu ändern : klicken Sie auf den grünen Tasten mit einem schwarzen Kreuz Zum Vergrößern, auf den grünen Button mit einem Gedankenstrich zu verkleinern, oder auf die grünen Pfeile für benachbarte Karten.


METAR-TAF: